Time;durP1;ratioP1;P1;durP2;ratioP2;P2;SDS_P1;SDS_P2;PMS_P1;PMS_P2;Temp;Humidity;BMP_temperature;BMP_pressure;BME280_temperature;BME280_humidity;BME280_pressure;Samples;Min_cycle;Max_cycle;Signal;HPM_P1;HPM_P2
2023/07/30 00:01:47;;;;;;;;;;;;;;;-140.72;0.00;52697.28;5093082;28;19958;-71
2023/07/30 00:04:13;;;;;;;;;;;;;;;-140.72;0.00;52683.06;5092766;28;19916;-71
2023/07/30 00:06:38;;;;;;;;;;;;;;;-140.72;0.00;52672.91;5093028;28;19916;-71
2023/07/30 00:09:03;;;;;;;;;;;;;;;-140.72;0.53;52707.41;5092341;28;20081;-70
2023/07/30 00:11:29;;;;;;;;;;;;;;;-140.72;2.56;52674.94;5099234;28;19923;-71
2023/07/30 00:13:54;;;;;;;;;;;;;;;-140.72;6.48;52650.59;5099705;28;19916;-71
2023/07/30 00:16:19;;;;;;;;;;;;;;;-140.72;8.11;52674.94;5092615;28;20289;-70
2023/07/30 00:18:45;;;;;;;;;;;;;;;-140.72;6.76;52683.06;5093036;28;19932;-71
2023/07/30 00:21:10;;;;;;;;;;;;;;;-140.72;6.83;52660.75;5089218;28;20374;-71
2023/07/30 00:23:36;;;;;;;;;;;;;;;-140.72;8.59;52697.28;5093106;28;19916;-71
2023/07/30 00:26:01;;;;;;;;;;;;;;;-140.72;10.89;52652.63;5092359;28;19985;-70
2023/07/30 00:28:26;;;;;;;;;;;;;;;-140.72;13.47;52727.72;5092915;28;19923;-71
2023/07/30 00:30:51;;;;;;;;;;;;;;;-140.72;16.17;52691.19;5083523;28;19959;-70
2023/07/30 00:33:16;;;;;;;;;;;;;;;-140.72;18.08;52699.31;5083372;28;19924;-71
2023/07/30 00:35:42;;;;;;;;;;;;;;;-140.72;21.29;52662.78;5086973;28;19916;-70
2023/07/30 00:38:07;;;;;;;;;;;;;;;-140.72;23.86;52670.88;5090980;28;19916;-70
2023/07/30 00:40:32;;;;;;;;;;;;;;;-140.72;25.20;52725.69;5091048;28;19917;-70
2023/07/30 00:42:57;;;;;;;;;;;;;;;-140.72;30.32;52705.38;5091390;28;19939;-70
2023/07/30 00:45:23;;;;;;;;;;;;;;;-140.72;31.78;52687.13;5090946;28;19916;-71
2023/07/30 00:47:48;;;;;;;;;;;;;;;-140.72;33.01;52683.06;5095009;28;19917;-70
2023/07/30 00:50:14;;;;;;;;;;;;;;;-140.72;33.47;52672.91;5089102;28;20374;-70
2023/07/30 00:52:40;;;;;;;;;;;;;;;-140.72;34.31;52654.66;5091059;28;20105;-70
2023/07/30 00:55:06;;;;;;;;;;;;;;;-140.72;34.26;52676.97;5091771;28;19939;-69
2023/07/30 00:57:32;;;;;;;;;;;;;;;-140.72;33.91;52683.06;5082811;28;20374;-70
2023/07/30 00:59:57;;;;;;;;;;;;;;;-140.72;33.95;52656.69;5092327;28;19917;-70
2023/07/30 01:02:22;;;;;;;;;;;;;;;-140.72;33.57;52695.25;5093045;28;19916;-70
2023/07/30 01:04:48;;;;;;;;;;;;;;;-140.72;33.12;52672.91;5086196;28;20335;-70
2023/07/30 01:07:13;;;;;;;;;;;;;;;-140.72;34.42;52670.88;5092137;28;20377;-70
2023/07/30 01:09:38;;;;;;;;;;;;;;;-140.72;36.11;52717.56;5092420;28;20358;-70
2023/07/30 01:12:05;;;;;;;;;;;;;;;-140.72;37.54;52670.88;5095627;28;19916;-70
2023/07/30 01:14:31;;;;;;;;;;;;;;;-140.72;37.59;52705.38;5095774;28;20333;-70
2023/07/30 01:16:56;;;;;;;;;;;;;;;-140.72;40.12;52699.31;5096460;28;19916;-71
2023/07/30 01:19:22;;;;;;;;;;;;;;;-140.72;41.45;52654.66;5094955;28;19923;-71
2023/07/30 01:21:47;;;;;;;;;;;;;;;-140.72;42.07;52699.31;5094885;28;20430;-69
2023/07/30 01:24:12;;;;;;;;;;;;;;;-140.72;43.84;52634.38;5084405;28;19916;-69
2023/07/30 01:26:45;;;;;;;;;;;;;;;-140.72;44.42;52670.88;5095422;28;20365;-70
2023/07/30 01:29:14;;;;;;;;;;;;;;;-140.72;44.34;52683.06;5095961;28;19916;-70
2023/07/30 01:31:40;;;;;;;;;;;;;;;-140.72;47.99;52697.28;5093345;28;19929;-69
2023/07/30 01:34:07;;;;;;;;;;;;;;;-140.72;50.43;52676.97;5089037;28;20008;-70
2023/07/30 01:36:33;;;;;;;;;;;;;;;-140.72;52.89;52668.84;5094077;28;19923;-69
2023/07/30 01:39:00;;;;;;;;;;;;;;;-140.72;53.44;52689.16;5071868;28;20221;-69
2023/07/30 01:41:25;;;;;;;;;;;;;;;-140.72;56.32;52707.41;5089520;28;19969;-70
2023/07/30 01:43:50;;;;;;;;;;;;;;;-140.72;57.77;52725.69;5090419;28;20439;-70
2023/07/30 01:46:16;;;;;;;;;;;;;;;-140.72;59.91;52670.88;5083501;28;19916;-71
2023/07/30 01:48:41;;;;;;;;;;;;;;;-140.72;61.62;52654.66;5095519;28;19916;-70
2023/07/30 01:51:06;;;;;;;;;;;;;;;-140.72;65.15;52719.59;5088262;28;19925;-69
2023/07/30 01:53:31;;;;;;;;;;;;;;;-140.72;68.77;52719.59;5081338;28;19921;-69
2023/07/30 01:55:57;;;;;;;;;;;;;;;-140.72;73.29;52664.81;5088275;28;19917;-69
2023/07/30 01:58:22;;;;;;;;;;;;;;;-140.72;75.58;52689.16;5079532;28;19920;-70
2023/07/30 02:00:47;;;;;;;;;;;;;;;-140.72;79.34;52707.41;5081064;28;19916;-70
2023/07/30 02:03:12;;;;;;;;;;;;;;;-140.72;83.06;52691.19;5094259;28;19916;-71
2023/07/30 02:05:38;;;;;;;;;;;;;;;-140.72;86.14;52703.34;5075289;28;19917;-71
2023/07/30 02:08:03;;;;;;;;;;;;;;;-140.72;89.26;52693.22;5094224;28;19923;-70
2023/07/30 02:10:28;;;;;;;;;;;;;;;-140.72;94.30;52660.75;5094883;28;19923;-71
2023/07/30 02:12:53;;;;;;;;;;;;;;;-140.72;98.48;52711.47;5094027;28;19916;-71
2023/07/30 02:15:19;;;;;;;;;;;;;;;-140.72;100.00;52721.63;5094689;28;19916;-71
2023/07/30 02:17:44;;;;;;;;;;;;;;;-140.72;100.00;52685.09;5094502;28;19993;-71
2023/07/30 02:20:09;;;;;;;;;;;;;;;-140.72;100.00;52691.19;5093544;28;19916;-71
2023/07/30 02:22:34;;;;;;;;;;;;;;;-140.72;100.00;52658.72;5093192;28;19952;-71
2023/07/30 02:25:00;;;;;;;;;;;;;;;-140.72;100.00;52711.47;5094592;28;19924;-71
2023/07/30 02:27:25;;;;;;;;;;;;;;;-140.72;100.00;52711.47;5094174;28;19917;-71
2023/07/30 02:29:50;;;;;;;;;;;;;;;-140.72;100.00;52687.13;5094448;28;19932;-71
2023/07/30 02:32:15;;;;;;;;;;;;;;;-140.72;100.00;52719.59;5093669;28;19926;-71
2023/07/30 02:34:47;;;;;;;;;;;;;;;-140.72;100.00;52697.28;5086769;28;19985;-71
2023/07/30 02:37:12;;;;;;;;;;;;;;;-140.72;100.00;52715.53;5090938;28;20482;-71
2023/07/30 02:39:38;;;;;;;;;;;;;;;-140.72;100.00;52683.06;5091618;28;19916;-71
2023/07/30 02:42:03;;;;;;;;;;;;;;;-140.72;100.00;52711.47;5093909;28;20082;-71
2023/07/30 02:44:28;;;;;;;;;;;;;;;-140.72;100.00;52729.75;5096242;28;19916;-71
2023/07/30 02:46:53;;;;;;;;;;;;;;;-140.72;100.00;52727.72;5090154;28;20251;-70
2023/07/30 02:49:19;;;;;;;;;;;;;;;-140.72;100.00;52691.19;5086803;28;19924;-71
2023/07/30 02:51:48;;;;;;;;;;;;;;;-140.72;100.00;52727.72;5083944;28;19916;-71
2023/07/30 02:54:14;;;;;;;;;;;;;;;-140.72;100.00;52727.72;5069297;28;19916;-69
2023/07/30 02:56:39;;;;;;;;;;;;;;;-140.72;100.00;52711.47;5088411;28;19922;-69
2023/07/30 02:59:04;;;;;;;;;;;;;;;-140.72;100.00;52711.47;5092312;28;19919;-70
2023/07/30 03:01:29;;;;;;;;;;;;;;;-140.72;100.00;52743.94;5076799;28;19923;-70
2023/07/30 03:03:55;;;;;;;;;;;;;;;-140.72;100.00;52715.53;5095158;28;20346;-69
2023/07/30 03:06:20;;;;;;;;;;;;;;;-140.72;100.00;52687.13;5093756;28;20330;-70
2023/07/30 03:08:45;;;;;;;;;;;;;;;-140.72;100.00;52707.41;5086594;28;19927;-70
2023/07/30 03:11:10;;;;;;;;;;;;;;;-140.72;100.00;52687.13;5094089;28;19920;-70
2023/07/30 03:13:35;;;;;;;;;;;;;;;-140.72;100.00;52676.97;5093851;28;19955;-70
2023/07/30 03:16:01;;;;;;;;;;;;;;;-140.72;100.00;52689.16;5089320;28;20400;-69
2023/07/30 03:18:26;;;;;;;;;;;;;;;-140.72;100.00;52719.59;5086555;28;20024;-69
2023/07/30 03:20:51;;;;;;;;;;;;;;;-140.72;100.00;52721.63;5086432;28;19916;-69
2023/07/30 03:23:16;;;;;;;;;;;;;;;-140.72;100.00;52727.72;5090596;28;19952;-68
2023/07/30 03:25:42;;;;;;;;;;;;;;;-140.72;100.00;52697.28;5084144;28;19916;-69
2023/07/30 03:28:07;;;;;;;;;;;;;;;-140.72;100.00;52687.13;5086475;28;19917;-69
2023/07/30 03:30:32;;;;;;;;;;;;;;;-140.72;100.00;52699.31;5093089;28;19920;-70
2023/07/30 03:32:57;;;;;;;;;;;;;;;-140.72;100.00;52672.91;5093028;28;20392;-70
2023/07/30 03:35:23;;;;;;;;;;;;;;;-140.72;100.00;52735.81;5088114;28;19926;-69
2023/07/30 03:37:48;;;;;;;;;;;;;;;-140.72;100.00;52689.16;5093030;28;20010;-69
2023/07/30 03:40:13;;;;;;;;;;;;;;;-140.72;100.00;52733.78;5093017;28;19935;-69
2023/07/30 03:42:38;;;;;;;;;;;;;;;-140.72;100.00;52741.91;5093176;28;19916;-69
2023/07/30 03:45:04;;;;;;;;;;;;;;;-140.72;100.00;52768.28;5090657;28;19916;-69
2023/07/30 03:47:29;;;;;;;;;;;;;;;-140.72;100.00;52687.13;5093355;28;20370;-70
2023/07/30 03:49:54;;;;;;;;;;;;;;;-140.72;100.00;52707.41;5088809;28;19989;-70
2023/07/30 03:52:20;;;;;;;;;;;;;;;-140.72;100.00;52739.88;5085191;28;19920;-70
2023/07/30 03:54:45;;;;;;;;;;;;;;;-140.72;100.00;52683.06;5081794;28;19929;-70
2023/07/30 03:57:10;;;;;;;;;;;;;;;-140.72;100.00;52719.59;5093445;28;19920;-70
2023/07/30 03:59:35;;;;;;;;;;;;;;;-140.72;100.00;52729.75;5081389;28;20358;-70
2023/07/30 04:02:01;;;;;;;;;;;;;;;-140.72;100.00;52754.09;5076695;28;20297;-70
2023/07/30 04:04:26;;;;;;;;;;;;;;;-140.72;100.00;52713.50;5090136;28;19916;-70
2023/07/30 04:06:51;;;;;;;;;;;;;;;-140.72;100.00;52752.06;5083741;28;19916;-70
2023/07/30 04:09:16;;;;;;;;;;;;;;;-140.72;100.00;52705.38;5091479;28;20350;-70
2023/07/30 04:11:42;;;;;;;;;;;;;;;-140.72;100.00;52766.25;5091699;28;19916;-70
2023/07/30 04:14:08;;;;;;;;;;;;;;;-140.72;100.00;52715.53;5091254;28;19920;-70
2023/07/30 04:16:34;;;;;;;;;;;;;;;-140.72;100.00;52674.94;5092737;28;20026;-70
2023/07/30 04:18:59;;;;;;;;;;;;;;;-140.72;100.00;52679.00;5090312;28;19967;-70
2023/07/30 04:21:24;;;;;;;;;;;;;;;-140.72;100.00;52735.81;5090192;28;20372;-69
2023/07/30 04:23:49;;;;;;;;;;;;;;;-140.72;100.00;52711.47;5087611;28;20413;-69
2023/07/30 04:26:16;;;;;;;;;;;;;;;-140.72;100.00;52709.44;5065292;28;19916;-69
2023/07/30 04:28:41;;;;;;;;;;;;;;;-140.72;100.00;52735.81;5080285;28;19927;-69
2023/07/30 04:31:06;;;;;;;;;;;;;;;-140.72;100.00;52735.81;5066009;28;19920;-69
2023/07/30 04:33:31;;;;;;;;;;;;;;;-140.72;100.00;52699.31;5092158;28;19920;-70
2023/07/30 04:35:57;;;;;;;;;;;;;;;-140.72;100.00;52731.75;5092507;28;20273;-70
2023/07/30 04:38:23;;;;;;;;;;;;;;;-140.72;100.00;52735.81;5081580;28;19923;-70
2023/07/30 04:40:48;;;;;;;;;;;;;;;-140.72;100.00;52719.59;5092848;28;19923;-70
2023/07/30 04:43:14;;;;;;;;;;;;;;;-140.72;100.00;52739.88;5091012;28;19920;-70
2023/07/30 04:45:39;;;;;;;;;;;;;;;-140.72;100.00;52711.47;5094726;28;19916;-70
2023/07/30 04:48:04;;;;;;;;;;;;;;;-140.72;100.00;52752.06;5093050;28;19916;-70
2023/07/30 04:50:30;;;;;;;;;;;;;;;-140.72;100.00;52711.47;5086747;28;19920;-69
2023/07/30 04:52:55;;;;;;;;;;;;;;;-140.72;100.00;52699.31;5081990;28;20384;-69
2023/07/30 04:55:20;;;;;;;;;;;;;;;-140.72;100.00;52735.81;5087556;28;20277;-69
2023/07/30 04:57:46;;;;;;;;;;;;;;;-140.72;100.00;52660.75;5084537;28;20015;-70
2023/07/30 05:00:11;;;;;;;;;;;;;;;-140.72;100.00;52719.59;5096908;28;19916;-70
2023/07/30 05:02:36;;;;;;;;;;;;;;;-140.72;100.00;52695.25;5093829;28;19924;-70
2023/07/30 05:05:02;;;;;;;;;;;;;;;-140.72;100.00;52703.34;5096399;28;19923;-70
2023/07/30 05:07:27;;;;;;;;;;;;;;;-140.72;100.00;52681.03;5077629;28;19916;-70
2023/07/30 05:09:52;;;;;;;;;;;;;;;-140.72;100.00;52687.13;5096236;28;20284;-70
2023/07/30 05:12:17;;;;;;;;;;;;;;;-140.72;100.00;52683.06;5081995;28;19968;-70
2023/07/30 05:14:43;;;;;;;;;;;;;;;-140.72;100.00;52707.41;5095819;28;19916;-70
2023/07/30 05:17:08;;;;;;;;;;;;;;;-140.72;100.00;52676.97;5089455;28;19916;-70
2023/07/30 05:19:33;;;;;;;;;;;;;;;-140.72;100.00;52697.28;5081925;28;19920;-70
2023/07/30 05:22:01;;;;;;;;;;;;;;;-140.72;100.00;52683.06;5094900;28;19995;-70
2023/07/30 05:24:26;;;;;;;;;;;;;;;-140.72;100.00;52729.75;5076112;28;20454;-70
2023/07/30 05:26:52;;;;;;;;;;;;;;;-140.72;100.00;52676.97;5090017;28;19965;-70
2023/07/30 05:29:17;;;;;;;;;;;;;;;-140.72;100.00;52666.84;5095699;28;19936;-70
2023/07/30 05:31:42;;;;;;;;;;;;;;;-140.72;100.00;52693.22;5082470;28;20370;-70
2023/07/30 05:34:07;;;;;;;;;;;;;;;-140.72;100.00;52711.47;5088495;28;20370;-70
2023/07/30 05:36:32;;;;;;;;;;;;;;;-140.72;100.00;52662.78;5088987;28;20069;-70
2023/07/30 05:38:58;;;;;;;;;;;;;;;-140.72;100.00;52652.63;5094675;28;19920;-70
2023/07/30 05:41:23;;;;;;;;;;;;;;;-140.72;100.00;52687.13;5093162;28;19916;-70
2023/07/30 05:43:48;;;;;;;;;;;;;;;-140.72;100.00;52713.50;5094917;28;19916;-69
2023/07/30 05:46:14;;;;;;;;;;;;;;;-140.72;100.00;52681.03;5094880;28;19926;-70
2023/07/30 05:48:39;;;;;;;;;;;;;;;-140.72;100.00;52674.94;5095046;28;20014;-70
2023/07/30 05:51:04;;;;;;;;;;;;;;;-140.72;100.00;52681.03;5094122;28;19961;-70
2023/07/30 05:53:29;;;;;;;;;;;;;;;-140.72;100.00;52642.47;5086650;28;20050;-70
2023/07/30 05:55:55;;;;;;;;;;;;;;;-140.72;100.00;52660.75;5089060;28;20378;-70
2023/07/30 05:58:20;;;;;;;;;;;;;;;-140.72;100.00;52654.66;5094395;28;20285;-69
2023/07/30 06:00:45;;;;;;;;;;;;;;;-140.72;100.00;52681.03;5089739;28;19964;-70
2023/07/30 06:03:11;;;;;;;;;;;;;;;-140.72;100.00;52666.84;5093783;28;19920;-70
2023/07/30 06:05:40;;;;;;;;;;;;;;;-140.72;100.00;52687.13;5091354;28;19917;-70
2023/07/30 06:08:05;;;;;;;;;;;;;;;-140.72;100.00;52652.63;5094274;28;19916;-70
2023/07/30 06:10:30;;;;;;;;;;;;;;;-140.72;100.00;52683.06;5094704;28;19931;-70
2023/07/30 06:12:56;;;;;;;;;;;;;;;-140.72;100.00;52636.38;5094935;28;19921;-70
2023/07/30 06:15:21;;;;;;;;;;;;;;;-140.72;100.00;52646.53;5090567;28;19963;-70
2023/07/30 06:17:46;;;;;;;;;;;;;;;-140.72;100.00;52683.06;5092662;28;19920;-70
2023/07/30 06:20:11;;;;;;;;;;;;;;;-140.72;100.00;52634.38;5092611;28;19917;-70
2023/07/30 06:22:37;;;;;;;;;;;;;;;-140.72;100.00;52622.19;5091401;28;20296;-70
2023/07/30 06:25:02;;;;;;;;;;;;;;;-140.72;100.00;52674.94;5081721;28;20003;-71
2023/07/30 06:27:27;;;;;;;;;;;;;;;-140.72;100.00;52689.16;5080428;28;19970;-70
2023/07/30 06:29:53;;;;;;;;;;;;;;;-140.72;100.00;52681.03;5094013;28;20357;-70
2023/07/30 06:32:18;;;;;;;;;;;;;;;-140.72;100.00;52674.94;5094564;28;19924;-70
2023/07/30 06:34:43;;;;;;;;;;;;;;;-140.72;98.21;52644.50;5094767;28;19927;-69
2023/07/30 06:37:08;;;;;;;;;;;;;;;-140.72;96.71;52648.56;5093548;28;19938;-70
2023/07/30 06:39:33;;;;;;;;;;;;;;;-140.72;90.69;52622.19;5083099;28;19924;-70
2023/07/30 06:41:59;;;;;;;;;;;;;;;-140.72;80.08;52610.00;5089327;28;19916;-70
2023/07/30 06:44:25;;;;;;;;;;;;;;;-140.72;73.57;52648.56;5093777;28;19916;-70
2023/07/30 06:46:50;;;;;;;;;;;;;;;-140.72;68.29;52648.56;5081326;28;19920;-70
2023/07/30 06:49:15;;;;;;;;;;;;;;;-140.72;63.14;52599.88;5082956;28;19916;-70
2023/07/30 06:51:40;;;;;;;;;;;;;;;-140.72;54.06;52614.06;5082213;28;19920;-69
2023/07/30 06:54:06;;;;;;;;;;;;;;;-140.72;48.84;52646.53;5081023;28;20030;-70
2023/07/30 06:56:31;;;;;;;;;;;;;;;-140.72;47.60;52642.47;5080480;28;20015;-70
2023/07/30 06:58:56;;;;;;;;;;;;;;;-140.72;47.57;52638.41;5094156;28;20373;-70
2023/07/30 07:01:21;;;;;;;;;;;;;;;-140.72;47.92;52644.50;5092142;28;20273;-70
2023/07/30 07:03:47;;;;;;;;;;;;;;;-140.72;47.88;52644.50;5083869;28;19916;-70
2023/07/30 07:06:12;;;;;;;;;;;;;;;-140.72;43.87;52626.25;5092890;28;19916;-70
2023/07/30 07:08:37;;;;;;;;;;;;;;;-140.72;42.27;52638.41;5093464;28;20421;-69
2023/07/30 07:11:02;;;;;;;;;;;;;;;-140.72;39.22;52618.13;5092926;28;19916;-69
2023/07/30 07:13:28;;;;;;;;;;;;;;;-140.72;35.16;52620.16;5093735;28;19916;-70
2023/07/30 07:15:53;;;;;;;;;;;;;;;-140.72;26.22;52605.94;5090111;28;19977;-70
2023/07/30 07:18:18;;;;;;;;;;;;;;;-140.72;25.43;52618.13;5091946;28;19952;-70
2023/07/30 07:20:43;;;;;;;;;;;;;;;-140.72;28.21;52605.94;5091666;28;19966;-70
2023/07/30 07:23:09;;;;;;;;;;;;;;;-140.72;31.47;52666.84;5091552;28;19916;-70
2023/07/30 07:25:34;;;;;;;;;;;;;;;-140.72;38.55;52650.59;5088859;28;19923;-69
2023/07/30 07:27:59;;;;;;;;;;;;;;;-140.72;52.51;52654.66;5093192;28;19923;-70
2023/07/30 07:30:24;;;;;;;;;;;;;;;-140.72;66.09;52614.06;5092974;28;19951;-69
2023/07/30 07:32:50;;;;;;;;;;;;;;;-140.72;70.10;52638.41;5092655;28;19930;-70
2023/07/30 07:35:20;;;;;;;;;;;;;;;-140.72;69.04;52595.81;5082596;28;20009;-69
2023/07/30 07:37:45;;;;;;;;;;;;;;;-140.72;65.35;52616.09;5090395;28;20023;-70
2023/07/30 07:40:10;;;;;;;;;;;;;;;-140.72;62.12;52640.44;5085074;28;19963;-69
2023/07/30 07:42:36;;;;;;;;;;;;;;;-140.72;58.95;52630.31;5089529;28;19920;-70
2023/07/30 07:45:01;;;;;;;;;;;;;;;-140.72;49.30;52638.41;5087241;28;19977;-69
2023/07/30 07:47:26;;;;;;;;;;;;;;;-140.72;37.99;52612.03;5084726;28;20415;-69
2023/07/30 07:49:52;;;;;;;;;;;;;;;-140.72;27.31;52614.06;5092695;28;19924;-69
2023/07/30 07:52:17;;;;;;;;;;;;;;;-140.72;26.05;52630.31;5083255;28;20296;-70
2023/07/30 07:54:42;;;;;;;;;;;;;;;-140.72;24.06;52601.91;5075857;28;19916;-70
2023/07/30 07:57:08;;;;;;;;;;;;;;;-140.72;14.48;52597.84;5093061;28;20275;-69
2023/07/30 07:59:33;;;;;;;;;;;;;;;-140.72;2.12;52595.81;5092619;28;19977;-70
2023/07/30 08:01:59;;;;;;;;;;;;;;;-140.72;0.00;52573.50;5082033;28;19928;-70
2023/07/30 08:04:24;;;;;;;;;;;;;;;-140.72;0.00;52565.38;5092093;28;19923;-70
2023/07/30 08:06:49;;;;;;;;;;;;;;;-140.72;0.00;52622.19;5093498;28;19920;-69
2023/07/30 08:09:14;;;;;;;;;;;;;;;-140.72;0.00;52581.59;5092247;28;19916;-69
2023/07/30 08:11:40;;;;;;;;;;;;;;;-140.72;0.00;52559.28;5093125;28;19924;-70
2023/07/30 08:14:05;;;;;;;;;;;;;;;-140.72;0.00;52549.13;5090241;28;19939;-69
2023/07/30 08:16:30;;;;;;;;;;;;;;;-140.72;0.00;52573.50;5093159;28;19920;-69
2023/07/30 08:18:55;;;;;;;;;;;;;;;-140.72;0.00;52569.44;5092584;28;19989;-70
2023/07/30 08:21:21;;;;;;;;;;;;;;;-140.72;0.00;52532.91;5096295;28;20033;-70
2023/07/30 08:23:46;;;;;;;;;;;;;;;-140.72;0.00;52595.81;5087807;28;19924;-69
2023/07/30 08:26:11;;;;;;;;;;;;;;;-140.72;0.00;52553.19;5089685;28;19916;-69
2023/07/30 08:28:36;;;;;;;;;;;;;;;-140.72;0.00;52534.94;5079265;28;19923;-70
2023/07/30 08:31:02;;;;;;;;;;;;;;;-140.72;0.00;52532.91;5096370;28;19920;-69
2023/07/30 08:33:27;;;;;;;;;;;;;;;-140.72;0.00;52569.44;5096381;28;20443;-70
2023/07/30 08:35:56;;;;;;;;;;;;;;;-140.72;0.00;52597.84;5079329;28;19916;-69
2023/07/30 08:38:22;;;;;;;;;;;;;;;-140.72;0.00;52581.59;5096370;28;19923;-70
2023/07/30 08:40:47;;;;;;;;;;;;;;;-140.72;0.00;52587.69;5096349;28;19916;-70
2023/07/30 08:43:12;;;;;;;;;;;;;;;-140.72;0.00;52585.66;5079307;28;19923;-69
2023/07/30 08:45:38;;;;;;;;;;;;;;;-140.72;0.00;52573.50;5088908;28;19923;-69
2023/07/30 08:48:03;;;;;;;;;;;;;;;-140.72;0.00;52549.13;5095975;28;20007;-69
2023/07/30 08:50:29;;;;;;;;;;;;;;;-140.72;0.00;52532.91;5094469;28;20301;-70
2023/07/30 08:52:55;;;;;;;;;;;;;;;-140.72;0.00;52561.31;5092089;28;19916;-69
2023/07/30 08:55:21;;;;;;;;;;;;;;;-140.72;0.00;52583.63;5094227;28;19923;-69
2023/07/30 08:57:47;;;;;;;;;;;;;;;-140.72;0.00;52551.16;5090613;28;19969;-71
2023/07/30 09:00:14;;;;;;;;;;;;;;;-140.72;0.00;52571.47;5088117;28;19953;-70
2023/07/30 09:02:53;;;;;;;;;;;;;;;-140.72;0.00;52555.22;5093801;28;19922;-69
2023/07/30 09:05:20;;;;;;;;;;;;;;;-140.72;0.00;52563.34;5089938;28;19920;-69
2023/07/30 09:07:45;;;;;;;;;;;;;;;-140.72;0.00;52480.16;5084203;28;19942;-69
2023/07/30 09:10:10;;;;;;;;;;;;;;;-140.72;0.00;52502.47;5096001;28;20006;-69
2023/07/30 09:12:36;;;;;;;;;;;;;;;-140.72;0.00;52512.59;5095907;28;19916;-69
2023/07/30 09:15:05;;;;;;;;;;;;;;;-140.72;0.00;52532.91;5092811;28;19963;-70
2023/07/30 09:17:30;;;;;;;;;;;;;;;-140.72;0.00;52463.91;5094595;28;19916;-70
2023/07/30 09:19:56;;;;;;;;;;;;;;;-140.72;0.00;52496.38;5092231;28;19969;-69
2023/07/30 09:22:24;;;;;;;;;;;;;;;-140.72;0.00;52380.72;5087932;28;19917;-69
2023/07/30 09:24:49;;;;;;;;;;;;;;;-140.72;0.00;52386.81;5093980;28;19958;-70
2023/07/30 09:27:14;;;;;;;;;;;;;;;-140.72;0.00;52336.06;5092017;28;19967;-70
2023/07/30 09:29:49;;;;;;;;;;;;;;;-140.72;0.00;52374.63;5095181;28;19916;-70
2023/07/30 09:32:15;;;;;;;;;;;;;;;-140.72;0.00;52453.75;5095334;28;20401;-70
2023/07/30 09:34:44;;;;;;;;;;;;;;;-140.72;0.00;52398.97;5086421;28;19963;-70
2023/07/30 09:37:09;;;;;;;;;;;;;;;-140.72;0.00;52390.84;5094832;28;20393;-70
2023/07/30 09:39:37;;;;;;;;;;;;;;;-140.72;0.00;52407.09;5092743;28;19917;-70
2023/07/30 09:42:02;;;;;;;;;;;;;;;-140.72;0.00;52358.41;5091466;28;19916;-70
2023/07/30 09:44:28;;;;;;;;;;;;;;;-140.72;0.00;52374.63;5095747;28;20392;-70
2023/07/30 09:46:53;;;;;;;;;;;;;;;-140.72;0.00;52378.69;5095532;28;19991;-70
2023/07/30 09:49:18;;;;;;;;;;;;;;;-140.72;0.00;52401.00;5094862;28;19923;-71
2023/07/30 09:51:44;;;;;;;;;;;;;;;-140.72;0.00;52415.22;5094967;28;19929;-70
2023/07/30 09:54:10;;;;;;;;;;;;;;;-140.72;0.00;52342.16;5094491;28;20419;-70
2023/07/30 09:56:36;;;;;;;;;;;;;;;-140.72;0.00;52342.16;5095343;28;20824;-70
2023/07/30 09:59:01;;;;;;;;;;;;;;;-140.72;0.00;52293.47;5093867;28;19920;-70
2023/07/30 10:01:28;;;;;;;;;;;;;;;-140.72;0.00;52273.19;5095314;28;19916;-70
2023/07/30 10:03:55;;;;;;;;;;;;;;;-140.72;0.00;52378.69;5092852;28;19923;-71
2023/07/30 10:06:23;;;;;;;;;;;;;;;-140.72;0.00;52317.81;5094441;28;19920;-70
2023/07/30 10:08:49;;;;;;;;;;;;;;;-140.72;0.00;52269.13;5092255;28;20019;-71
2023/07/30 10:11:14;;;;;;;;;;;;;;;-140.72;0.00;52232.59;5095148;28;20017;-70
2023/07/30 10:13:40;;;;;;;;;;;;;;;-140.72;0.00;52285.34;5093040;28;19916;-69
2023/07/30 10:16:12;;;;;;;;;;;;;;;-140.72;0.00;52334.03;5093229;28;19916;-70
2023/07/30 10:18:41;;;;;;;;;;;;;;;-140.72;0.00;52346.22;5094472;28;19916;-69
2023/07/30 10:21:11;;;;;;;;;;;;;;;-140.72;0.00;52419.28;5092981;28;19929;-70
2023/07/30 10:23:45;;;;;;;;;;;;;;;-140.72;0.00;52445.66;5093866;28;19986;-70
2023/07/30 10:26:11;;;;;;;;;;;;;;;-140.72;0.00;52386.81;5084615;28;19920;-71
2023/07/30 10:28:38;;;;;;;;;;;;;;;-140.72;0.00;52370.56;5093703;28;20353;-70
2023/07/30 10:31:08;;;;;;;;;;;;;;;-140.72;0.00;52275.19;5094383;28;19920;-70
2023/07/30 10:33:47;;;;;;;;;;;;;;;-140.72;0.00;52332.03;5094670;28;20015;-71
2023/07/30 10:36:13;;;;;;;;;;;;;;;-140.72;0.00;52378.69;5094834;28;20400;-71
2023/07/30 10:38:38;;;;;;;;;;;;;;;-140.72;0.00;52346.22;5089805;28;19916;-71
2023/07/30 10:41:08;;;;;;;;;;;;;;;-140.72;0.00;52403.03;5077338;28;19916;-70
2023/07/30 10:43:34;;;;;;;;;;;;;;;-140.72;0.00;52366.50;5092900;28;19924;-70
2023/07/30 10:45:59;;;;;;;;;;;;;;;-140.72;0.00;52380.72;5093752;28;19920;-70
2023/07/30 10:48:35;;;;;;;;;;;;;;;-140.72;0.00;52313.75;5093244;28;19970;-71
2023/07/30 10:51:11;;;;;;;;;;;;;;;-140.72;0.00;52372.59;5093703;28;20397;-71
2023/07/30 10:53:36;;;;;;;;;;;;;;;-140.72;0.00;52394.91;5093719;28;19924;-70
2023/07/30 10:56:03;;;;;;;;;;;;;;;-140.72;0.00;52431.44;5093485;28;20296;-70
2023/07/30 10:58:29;;;;;;;;;;;;;;;-140.72;0.00;52392.88;5094265;28;19916;-70
2023/07/30 11:00:55;;;;;;;;;;;;;;;-140.72;0.00;52311.72;5093694;28;19920;-70
2023/07/30 11:03:20;;;;;;;;;;;;;;;-140.72;0.00;52354.34;5092634;28;19920;-71
2023/07/30 11:05:48;;;;;;;;;;;;;;;-140.72;0.00;52165.63;5091876;28;19916;-69
2023/07/30 11:08:14;;;;;;;;;;;;;;;-140.72;0.00;52183.91;5094049;28;19919;-68
2023/07/30 11:10:44;;;;;;;;;;;;;;;-140.72;0.00;52194.03;5090380;28;19916;-69
2023/07/30 11:13:09;;;;;;;;;;;;;;;-140.72;0.00;52110.84;5090922;28;19964;-69
2023/07/30 11:15:40;;;;;;;;;;;;;;;-140.72;0.00;52196.06;5093235;28;19947;-69
2023/07/30 11:18:05;;;;;;;;;;;;;;;-140.72;0.00;52273.19;5092738;28;19917;-70
2023/07/30 11:20:30;;;;;;;;;;;;;;;-140.72;0.00;52279.25;5076898;28;20403;-70
2023/07/30 11:22:56;;;;;;;;;;;;;;;-140.72;0.00;52382.75;5095201;28;20274;-70
2023/07/30 11:25:21;;;;;;;;;;;;;;;-140.72;0.00;52352.31;5077930;28;19916;-71
2023/07/30 11:27:47;;;;;;;;;;;;;;;-140.72;0.00;52279.25;5105380;28;19916;-69
2023/07/30 11:30:12;;;;;;;;;;;;;;;-140.72;0.00;52279.25;5092914;28;20137;-69
2023/07/30 11:32:37;;;;;;;;;;;;;;;-140.72;0.00;52287.38;5093434;28;20357;-69
2023/07/30 11:35:03;;;;;;;;;;;;;;;-140.72;0.00;52240.72;5079984;28;19916;-69
2023/07/30 11:37:28;;;;;;;;;;;;;;;-140.72;0.00;52289.41;5081109;28;20003;-70
2023/07/30 11:39:54;;;;;;;;;;;;;;;-140.72;0.00;52358.41;5093201;28;19916;-69
2023/07/30 11:42:19;;;;;;;;;;;;;;;-140.72;0.00;52352.31;5080727;28;20358;-70
2023/07/30 11:44:44;;;;;;;;;;;;;;;-140.72;0.00;52309.69;5086432;28;20267;-69
2023/07/30 11:47:10;;;;;;;;;;;;;;;-140.72;0.00;52189.97;5082856;28;19922;-69
2023/07/30 11:49:35;;;;;;;;;;;;;;;-140.72;0.00;52323.91;5093576;28;20347;-69
2023/07/30 11:52:10;;;;;;;;;;;;;;;-140.72;0.00;52388.84;5092612;28;19931;-69
2023/07/30 11:54:35;;;;;;;;;;;;;;;-140.72;0.00;52435.50;5092312;28;19916;-69
2023/07/30 11:57:00;;;;;;;;;;;;;;;-140.72;0.00;52431.44;5091714;28;19942;-69
2023/07/30 11:59:26;;;;;;;;;;;;;;;-140.72;0.00;52429.41;5092298;28;19916;-68
2023/07/30 12:01:51;;;;;;;;;;;;;;;-140.72;0.00;52445.66;5093054;28;19916;-69
2023/07/30 12:04:16;;;;;;;;;;;;;;;-140.72;0.00;52323.91;5090658;28;19916;-69
2023/07/30 12:06:41;;;;;;;;;;;;;;;-140.72;0.00;52214.34;5092919;28;20388;-69
2023/07/30 12:09:29;;;;;;;;;;;;;;;-140.72;0.00;52256.94;5092264;28;20309;-69
2023/07/30 12:11:56;;;;;;;;;;;;;;;-140.72;0.00;52319.84;5088468;28;19920;-70
2023/07/30 12:14:25;;;;;;;;;;;;;;;-140.72;0.00;52206.22;5092127;28;20385;-69
2023/07/30 12:16:50;;;;;;;;;;;;;;;-140.72;0.00;52139.25;5091880;28;19945;-70
2023/07/30 12:19:16;;;;;;;;;;;;;;;-140.72;0.00;52348.25;5091857;28;20040;-69
2023/07/30 12:21:41;;;;;;;;;;;;;;;-140.72;0.00;52220.41;5091293;28;19924;-70